createdAt,value
2017-11-07T00:02:24.659Z,1.30
2017-11-07T00:04:53.022Z,1.20
2017-11-07T00:07:20.622Z,1.30
2017-11-07T00:09:48.243Z,1.30
2017-11-07T00:12:15.869Z,1.30
2017-11-07T00:14:43.995Z,1.30
2017-11-07T00:17:11.575Z,1.30
2017-11-07T00:19:39.200Z,1.20
2017-11-07T00:22:06.790Z,1.20
2017-11-07T00:24:34.408Z,1.20
2017-11-07T00:27:02.035Z,1.20
2017-11-07T00:29:29.634Z,1.20
2017-11-07T00:31:57.505Z,1.20
2017-11-07T00:34:25.072Z,1.10
2017-11-07T00:36:52.648Z,1.20
2017-11-07T00:39:21.033Z,1.00
2017-11-07T00:41:48.634Z,1.00
2017-11-07T00:44:16.238Z,1.00
2017-11-07T00:46:44.582Z,1.10
2017-11-07T00:49:12.708Z,1.10
2017-11-07T00:51:40.297Z,1.10
2017-11-07T00:54:07.865Z,1.10
2017-11-07T00:56:35.467Z,1.20
2017-11-07T00:59:03.883Z,1.30
2017-11-07T01:01:31.488Z,1.30
2017-11-07T01:03:59.078Z,1.30
2017-11-07T01:06:27.696Z,1.30
2017-11-07T01:08:55.609Z,1.30
2017-11-07T01:11:24.077Z,1.30
2017-11-07T01:13:51.677Z,1.30
2017-11-07T01:16:19.273Z,1.30
2017-11-07T01:18:46.915Z,1.20
2017-11-07T01:21:14.490Z,1.30
2017-11-07T01:23:42.353Z,1.20
2017-11-07T01:26:09.938Z,1.20
2017-11-07T01:28:37.551Z,1.20
2017-11-07T01:31:05.235Z,1.20
2017-11-07T01:33:32.823Z,1.10
2017-11-07T01:36:00.458Z,1.10
2017-11-07T01:38:28.054Z,1.20
2017-11-07T01:40:55.910Z,1.10
2017-11-07T01:43:23.501Z,1.10
2017-11-07T01:45:51.083Z,1.10
2017-11-07T01:48:18.697Z,1.10
2017-11-07T01:50:46.289Z,1.00
2017-11-07T01:53:14.214Z,1.00
2017-11-07T01:55:41.801Z,1.10
2017-11-07T01:58:10.143Z,1.00
2017-11-07T02:00:37.729Z,1.00
2017-11-07T02:03:06.067Z,1.10
2017-11-07T02:05:33.729Z,1.10
2017-11-07T02:08:01.319Z,1.10
2017-11-07T02:10:29.973Z,1.10
2017-11-07T02:12:57.555Z,1.10
2017-11-07T02:15:25.132Z,1.00
2017-11-07T02:17:53.510Z,1.00
2017-11-07T02:20:21.855Z,0.90
2017-11-07T02:22:50.210Z,0.90
2017-11-07T02:25:17.858Z,0.90
2017-11-07T02:27:46.015Z,0.80
2017-11-07T02:30:14.358Z,0.90
2017-11-07T02:32:41.913Z,0.80
2017-11-07T02:35:10.273Z,1.00
2017-11-07T02:37:37.878Z,1.00
2017-11-07T02:40:06.513Z,0.90
2017-11-07T02:42:34.110Z,0.80
2017-11-07T02:45:01.694Z,0.90
2017-11-07T02:47:29.422Z,1.00
2017-11-07T02:49:56.999Z,0.90
2017-11-07T02:52:25.387Z,0.90
2017-11-07T02:54:53.739Z,0.80
2017-11-07T02:57:21.599Z,0.80
2017-11-07T02:59:49.183Z,0.80
2017-11-07T03:02:16.798Z,0.70
2017-11-07T03:04:44.400Z,0.70
2017-11-07T03:07:12.803Z,0.70
2017-11-07T03:09:40.927Z,0.70
2017-11-07T03:12:08.558Z,0.80
2017-11-07T03:14:36.142Z,0.80
2017-11-07T03:17:03.750Z,0.80
2017-11-07T03:19:32.098Z,0.90
2017-11-07T03:21:59.947Z,0.90
2017-11-07T03:24:27.552Z,0.90
2017-11-07T03:26:55.170Z,1.00
2017-11-07T03:29:22.757Z,1.00
2017-11-07T03:31:51.143Z,1.00
2017-11-07T03:34:19.775Z,1.00
2017-11-07T03:36:47.373Z,1.00
2017-11-07T03:39:14.977Z,1.00
2017-11-07T03:41:42.582Z,0.90
2017-11-07T03:44:10.154Z,1.00
2017-11-07T03:46:38.094Z,0.90
2017-11-07T03:49:05.682Z,1.00
2017-11-07T03:51:34.071Z,0.90
2017-11-07T03:54:02.442Z,0.90
2017-11-07T03:56:30.805Z,0.80
2017-11-07T03:58:58.421Z,0.80
2017-11-07T04:01:25.998Z,0.90
2017-11-07T04:03:53.574Z,0.90
2017-11-07T04:06:21.209Z,0.90
2017-11-07T04:08:48.895Z,0.90
2017-11-07T04:11:16.842Z,1.00
2017-11-07T04:13:44.434Z,1.10
2017-11-07T04:16:12.050Z,1.10
2017-11-07T04:18:39.713Z,1.20
2017-11-07T04:21:07.285Z,1.20
2017-11-07T04:23:35.202Z,1.20
2017-11-07T04:26:03.127Z,1.20
2017-11-07T04:28:30.727Z,1.10
2017-11-07T04:30:59.133Z,1.30
2017-11-07T04:33:26.713Z,1.30
2017-11-07T04:35:54.601Z,1.20
2017-11-07T04:38:22.169Z,1.10
2017-11-07T04:40:49.733Z,1.00
2017-11-07T04:43:17.338Z,1.00
2017-11-07T04:45:44.978Z,1.00
2017-11-07T04:48:13.621Z,1.10
2017-11-07T04:50:41.186Z,1.10
2017-11-07T04:53:08.918Z,1.10
2017-11-07T04:55:36.649Z,1.00
2017-11-07T04:58:04.998Z,1.10
2017-11-07T05:00:32.875Z,1.00
2017-11-07T05:03:00.459Z,1.10
2017-11-07T05:05:28.313Z,1.00
2017-11-07T05:07:57.065Z,1.00
2017-11-07T05:10:24.671Z,1.10
2017-11-07T05:12:52.526Z,1.10
2017-11-07T05:15:20.900Z,1.20
2017-11-07T05:17:49.284Z,1.20
2017-11-07T05:20:16.927Z,1.20
2017-11-07T05:22:44.502Z,1.30
2017-11-07T05:25:13.141Z,1.40
2017-11-07T05:27:41.534Z,1.40
2017-11-07T05:30:09.200Z,1.60
2017-11-07T05:32:36.785Z,1.70
2017-11-07T05:35:05.135Z,2.00
2017-11-07T05:37:33.065Z,1.90
2017-11-07T05:40:00.655Z,2.10
2017-11-07T05:42:28.297Z,2.10
2017-11-07T05:44:55.906Z,2.20
2017-11-07T05:47:24.285Z,2.40
2017-11-07T05:49:53.053Z,2.40
2017-11-07T05:52:20.589Z,2.40
2017-11-07T05:54:48.170Z,2.50
2017-11-07T05:57:15.811Z,2.60
2017-11-07T05:59:43.498Z,2.70
2017-11-07T06:02:11.443Z,2.80
2017-11-07T06:04:39.021Z,2.80
2017-11-07T06:07:06.610Z,2.90
2017-11-07T06:09:34.466Z,2.90
2017-11-07T06:12:02.834Z,3.00
2017-11-07T06:14:31.459Z,3.00
2017-11-07T06:16:59.812Z,3.00
2017-11-07T06:19:27.407Z,3.00
2017-11-07T06:21:55.011Z,3.10
2017-11-07T06:24:24.222Z,3.20
2017-11-07T06:26:54.980Z,3.20
2017-11-07T06:29:22.951Z,3.30
2017-11-07T06:31:50.573Z,3.40
2017-11-07T06:34:19.014Z,3.50
2017-11-07T06:36:46.581Z,3.50
2017-11-07T06:39:14.486Z,3.60
2017-11-07T06:41:42.834Z,3.60
2017-11-07T06:44:10.414Z,3.60
2017-11-07T06:46:38.006Z,3.70
2017-11-07T06:49:05.657Z,3.80
2017-11-07T06:51:34.295Z,3.80
2017-11-07T06:54:02.227Z,3.80
2017-11-07T06:56:29.850Z,3.80
2017-11-07T06:58:57.437Z,3.90
2017-11-07T07:01:24.986Z,3.90
2017-11-07T07:03:53.634Z,3.90
2017-11-07T07:06:21.254Z,3.90
2017-11-07T07:08:48.829Z,4.00
2017-11-07T07:11:16.434Z,4.00
2017-11-07T07:13:45.840Z,4.10
2017-11-07T07:16:13.728Z,4.20
2017-11-07T07:18:42.088Z,4.30
2017-11-07T07:21:10.430Z,4.40
2017-11-07T07:23:38.268Z,4.40
2017-11-07T07:26:05.842Z,4.50
2017-11-07T07:28:33.723Z,4.60
2017-11-07T07:31:01.326Z,4.70
2017-11-07T07:33:29.678Z,4.90
2017-11-07T07:35:57.262Z,4.80
2017-11-07T07:38:25.607Z,4.90
2017-11-07T07:40:53.543Z,4.90
2017-11-07T07:43:21.136Z,5.00
2017-11-07T07:45:48.714Z,5.00
2017-11-07T07:48:16.313Z,5.10
2017-11-07T07:50:43.917Z,5.20
2017-11-07T07:53:11.845Z,5.30
2017-11-07T07:55:39.427Z,5.30
2017-11-07T07:58:07.024Z,5.30
2017-11-07T08:00:35.381Z,5.40
2017-11-07T08:03:02.972Z,5.40
2017-11-07T08:05:30.553Z,5.50
2017-11-07T08:07:58.130Z,5.60
2017-11-07T08:10:25.707Z,5.80
2017-11-07T08:12:53.321Z,5.90
2017-11-07T08:15:20.911Z,6.00
2017-11-07T08:17:48.596Z,6.20
2017-11-07T08:20:16.183Z,6.40
2017-11-07T08:22:44.527Z,7.00
2017-11-07T08:25:12.193Z,7.00
2017-11-07T08:27:39.766Z,7.40
2017-11-07T08:30:07.381Z,7.40
2017-11-07T08:32:34.995Z,7.60
2017-11-07T08:35:02.588Z,7.60
2017-11-07T08:37:30.244Z,7.70
2017-11-07T08:39:57.823Z,7.80
2017-11-07T08:42:25.412Z,8.00
2017-11-07T08:44:52.990Z,7.90
2017-11-07T08:47:20.708Z,8.00
2017-11-07T08:49:48.393Z,8.00
2017-11-07T08:52:15.960Z,8.20
2017-11-07T08:54:44.224Z,8.00
2017-11-07T08:57:12.260Z,7.90
2017-11-07T08:59:39.844Z,7.90
2017-11-07T09:02:07.436Z,7.90
2017-11-07T09:04:35.189Z,7.70
2017-11-07T09:07:03.088Z,7.70
2017-11-07T09:09:31.442Z,7.70
2017-11-07T09:11:59.394Z,7.60
2017-11-07T09:14:27.265Z,7.60
2017-11-07T09:16:54.858Z,7.60
2017-11-07T09:19:22.452Z,7.50
2017-11-07T09:21:50.025Z,7.60
2017-11-07T09:24:17.638Z,7.70
2017-11-07T09:26:46.002Z,7.80
2017-11-07T09:29:13.594Z,7.80
2017-11-07T09:31:41.182Z,7.80
2017-11-07T09:34:08.770Z,7.70
2017-11-07T09:36:36.362Z,7.90
2017-11-07T09:39:04.702Z,8.00
2017-11-07T09:41:32.552Z,8.00
2017-11-07T09:44:00.109Z,8.00
2017-11-07T09:46:27.707Z,8.10
2017-11-07T09:48:56.123Z,8.10
2017-11-07T09:51:23.760Z,8.10
2017-11-07T09:53:52.325Z,8.30
2017-11-07T09:56:20.692Z,8.20
2017-11-07T09:58:48.647Z,8.20
2017-11-07T10:01:16.238Z,8.10
2017-11-07T10:03:44.597Z,8.00
2017-11-07T10:06:12.235Z,8.00
2017-11-07T10:08:39.829Z,7.90
2017-11-07T10:11:07.798Z,7.90
2017-11-07T10:13:35.367Z,7.80
2017-11-07T10:16:03.735Z,8.00
2017-11-07T10:18:31.399Z,8.00
2017-11-07T10:20:59.783Z,8.10
2017-11-07T10:23:28.163Z,8.20
2017-11-07T10:25:56.548Z,8.30
2017-11-07T10:28:24.907Z,8.40
2017-11-07T10:30:52.507Z,8.40
2017-11-07T10:33:20.371Z,8.50
2017-11-07T10:35:48.020Z,8.70
2017-11-07T10:38:15.603Z,8.90
2017-11-07T10:40:43.172Z,8.90
2017-11-07T10:43:10.794Z,9.00
2017-11-07T10:45:38.414Z,8.80
2017-11-07T10:48:06.290Z,8.80
2017-11-07T10:50:33.935Z,8.80
2017-11-07T10:53:01.515Z,8.70
2017-11-07T10:55:29.115Z,8.70
2017-11-07T10:57:56.725Z,8.70
2017-11-07T11:00:26.110Z,8.90
2017-11-07T11:02:53.700Z,9.00
2017-11-07T11:05:21.334Z,9.10
2017-11-07T11:07:48.942Z,9.10
2017-11-07T11:10:16.578Z,8.80
2017-11-07T11:12:44.174Z,8.80
2017-11-07T11:15:11.758Z,8.70
2017-11-07T11:17:39.470Z,8.60
2017-11-07T11:20:07.827Z,8.50
2017-11-07T11:22:35.435Z,8.50
2017-11-07T11:25:03.038Z,8.50
2017-11-07T11:27:30.772Z,8.50
2017-11-07T11:29:58.391Z,8.40
2017-11-07T11:32:26.754Z,8.40
2017-11-07T11:34:54.328Z,8.40
2017-11-07T11:37:22.747Z,8.40
2017-11-07T11:39:50.336Z,8.40
2017-11-07T11:42:17.963Z,8.40
2017-11-07T11:44:45.547Z,8.50
2017-11-07T11:47:13.391Z,8.40
2017-11-07T11:49:41.031Z,8.30
2017-11-07T11:52:09.681Z,8.20
2017-11-07T11:54:37.297Z,8.20
2017-11-07T11:57:04.890Z,8.20
2017-11-07T11:59:32.474Z,8.20
2017-11-07T12:02:00.851Z,8.20
2017-11-07T12:04:28.443Z,8.20
2017-11-07T12:06:56.069Z,8.20
2017-11-07T12:09:23.685Z,8.20
2017-11-07T12:11:51.284Z,8.30
2017-11-07T12:14:18.866Z,8.30
2017-11-07T12:16:47.290Z,8.40
2017-11-07T12:19:14.893Z,8.30
2017-11-07T12:21:43.258Z,8.40
2017-11-07T12:24:10.846Z,8.40
2017-11-07T12:26:39.217Z,8.50
2017-11-07T12:29:06.855Z,8.40
2017-11-07T12:31:34.444Z,8.40
2017-11-07T12:34:02.852Z,8.40
2017-11-07T12:36:30.422Z,8.40
2017-11-07T12:38:58.021Z,8.40
2017-11-07T12:41:25.586Z,8.30
2017-11-07T12:43:53.536Z,8.30
2017-11-07T12:46:21.103Z,8.30
2017-11-07T12:48:48.698Z,8.20
2017-11-07T12:54:18.026Z,8.40
2017-11-07T12:56:45.614Z,8.40
2017-11-07T12:59:13.198Z,8.30
2017-11-07T13:01:40.797Z,8.30
2017-11-07T13:04:08.395Z,8.30
2017-11-07T13:06:36.058Z,8.30
2017-11-07T13:09:03.622Z,8.20
2017-11-07T13:11:31.304Z,8.20
2017-11-07T13:13:59.972Z,8.10
2017-11-07T13:16:27.552Z,8.10
2017-11-07T13:18:55.211Z,8.10
2017-11-07T13:21:22.819Z,8.10
2017-11-07T13:23:50.732Z,8.10
2017-11-07T13:26:18.330Z,8.20
2017-11-07T13:28:45.923Z,8.20
2017-11-07T13:31:13.522Z,8.20
2017-11-07T13:33:41.360Z,8.20
2017-11-07T13:36:09.006Z,8.30
2017-11-07T13:38:36.617Z,8.20
2017-11-07T13:41:05.003Z,8.10
2017-11-07T13:43:33.400Z,8.00
2017-11-07T13:46:00.978Z,8.00
2017-11-07T13:48:28.591Z,8.00
2017-11-07T13:50:56.957Z,8.10
2017-11-07T13:53:24.694Z,8.00
2017-11-07T13:55:52.313Z,8.00
2017-11-07T13:58:19.952Z,8.00
2017-11-07T14:00:48.346Z,8.00
2017-11-07T14:03:16.005Z,8.00
2017-11-07T14:05:44.390Z,8.00
2017-11-07T14:08:12.013Z,8.00
2017-11-07T14:10:40.331Z,8.00
2017-11-07T14:13:08.790Z,8.00
2017-11-07T14:15:37.360Z,8.10
2017-11-07T14:18:04.975Z,8.10
2017-11-07T14:20:32.718Z,8.10
2017-11-07T14:23:00.571Z,8.00
2017-11-07T14:25:28.941Z,8.00
2017-11-07T14:27:57.369Z,8.00
2017-11-07T14:30:24.983Z,8.00
2017-11-07T14:32:52.557Z,8.10
2017-11-07T14:35:20.472Z,8.00
2017-11-07T14:37:48.593Z,7.90
2017-11-07T14:40:17.002Z,7.80
2017-11-07T14:42:44.615Z,7.80
2017-11-07T14:45:12.967Z,7.90
2017-11-07T14:47:40.603Z,7.90
2017-11-07T14:50:08.183Z,7.80
2017-11-07T14:52:35.769Z,7.80
2017-11-07T14:55:03.411Z,7.80
2017-11-07T14:57:31.010Z,7.80
2017-11-07T14:59:59.401Z,8.00
2017-11-07T15:02:26.985Z,8.00
2017-11-07T15:04:54.672Z,7.90
2017-11-07T15:07:22.287Z,7.90
2017-11-07T15:09:49.853Z,7.90
2017-11-07T15:12:17.471Z,7.90
2017-11-07T15:14:45.279Z,7.90
2017-11-07T15:17:12.902Z,7.90
2017-11-07T15:19:40.477Z,7.90
2017-11-07T15:22:08.059Z,8.00
2017-11-07T15:24:35.716Z,8.00
2017-11-07T15:27:03.333Z,7.90
2017-11-07T15:29:30.944Z,7.80
2017-11-07T15:31:58.622Z,7.90
2017-11-07T15:34:26.268Z,7.80
2017-11-07T15:36:54.811Z,7.80
2017-11-07T15:39:23.170Z,7.80
2017-11-07T15:41:50.831Z,7.70
2017-11-07T15:44:18.458Z,7.80
2017-11-07T15:46:46.100Z,7.80
2017-11-07T15:49:13.741Z,7.80
2017-11-07T15:51:42.186Z,7.80
2017-11-07T15:54:10.152Z,7.70
2017-11-07T15:56:37.722Z,7.80
2017-11-07T15:59:05.406Z,7.80
2017-11-07T16:01:34.709Z,7.80
2017-11-07T16:04:02.378Z,7.80
2017-11-07T16:06:30.013Z,7.90
2017-11-07T16:08:57.660Z,7.80
2017-11-07T16:11:25.294Z,7.70
2017-11-07T16:13:53.908Z,7.70
2017-11-07T16:16:21.520Z,7.70
2017-11-07T16:18:49.157Z,7.70
2017-11-07T16:21:17.516Z,7.70
2017-11-07T16:23:45.130Z,7.70
2017-11-07T16:26:12.745Z,7.80
2017-11-07T16:28:41.291Z,7.70
2017-11-07T16:31:08.913Z,7.70
2017-11-07T16:33:37.347Z,7.60
2017-11-07T16:36:05.020Z,7.60
2017-11-07T16:38:32.645Z,7.60
2017-11-07T16:41:00.251Z,7.60
2017-11-07T16:43:28.660Z,7.60
2017-11-07T16:45:56.237Z,7.60
2017-11-07T16:48:23.827Z,7.60
2017-11-07T16:50:51.469Z,7.60
2017-11-07T16:53:19.257Z,7.60
2017-11-07T16:55:46.916Z,7.60
2017-11-07T16:58:14.494Z,7.60
2017-11-07T17:00:42.830Z,7.60
2017-11-07T17:03:10.482Z,7.60
2017-11-07T17:05:38.120Z,7.60
2017-11-07T17:08:05.733Z,7.60
2017-11-07T17:10:33.515Z,7.60
2017-11-07T17:13:01.885Z,7.60
2017-11-07T17:15:29.570Z,7.60
2017-11-07T17:17:57.260Z,7.60
2017-11-07T17:20:24.941Z,7.60
2017-11-07T17:22:52.586Z,7.60
2017-11-07T17:25:20.461Z,7.60
2017-11-07T17:27:48.117Z,7.60
2017-11-07T17:30:15.705Z,7.60
2017-11-07T17:32:43.305Z,7.60
2017-11-07T17:35:11.730Z,7.60
2017-11-07T17:37:39.357Z,7.60
2017-11-07T17:40:07.025Z,7.60
2017-11-07T17:42:34.617Z,7.60
2017-11-07T17:45:02.215Z,7.60
2017-11-07T17:47:29.854Z,7.50
2017-11-07T17:49:57.761Z,7.50
2017-11-07T17:52:25.376Z,7.60
2017-11-07T17:54:53.140Z,7.60
2017-11-07T17:57:21.725Z,7.60
2017-11-07T17:59:49.344Z,7.60
2017-11-07T18:02:16.961Z,7.60
2017-11-07T18:04:45.424Z,7.50
2017-11-07T18:07:13.657Z,7.50
2017-11-07T18:09:41.280Z,7.50
2017-11-07T18:12:08.896Z,7.50
2017-11-07T18:14:36.781Z,7.50
2017-11-07T18:17:04.465Z,7.50
2017-11-07T18:19:32.877Z,7.50
2017-11-07T18:22:00.523Z,7.50
2017-11-07T18:24:28.952Z,7.40
2017-11-07T18:26:56.652Z,7.40
2017-11-07T18:29:24.533Z,7.50
2017-11-07T18:31:52.608Z,7.50
2017-11-07T18:34:20.231Z,7.50
2017-11-07T18:36:47.963Z,7.50
2017-11-07T18:39:15.590Z,7.50
2017-11-07T18:41:43.193Z,7.50
2017-11-07T18:44:10.826Z,7.40
2017-11-07T18:46:38.504Z,7.40
2017-11-07T18:49:07.257Z,7.30
2017-11-07T18:51:34.847Z,7.30
2017-11-07T18:54:02.501Z,7.30
2017-11-07T18:56:30.248Z,7.40
2017-11-07T18:58:57.933Z,7.40
2017-11-07T19:01:25.804Z,7.40
2017-11-07T19:03:53.465Z,7.40
2017-11-07T19:06:21.047Z,7.40
2017-11-07T19:08:48.727Z,7.40
2017-11-07T19:11:16.365Z,7.40
2017-11-07T19:13:44.034Z,7.30
2017-11-07T19:16:11.641Z,7.30
2017-11-07T19:18:39.523Z,7.40
2017-11-07T19:21:07.133Z,7.40
2017-11-07T19:23:34.756Z,7.30
2017-11-07T19:26:02.360Z,7.40
2017-11-07T19:28:30.742Z,7.30
2017-11-07T19:30:59.208Z,7.40
2017-11-07T19:33:27.089Z,7.30
2017-11-07T19:35:55.956Z,7.40
2017-11-07T19:38:23.608Z,7.40
2017-11-07T19:40:51.246Z,7.40
2017-11-07T19:43:20.271Z,7.40
2017-11-07T19:45:47.888Z,7.40
2017-11-07T19:48:15.521Z,7.30
2017-11-07T19:50:43.964Z,7.20
2017-11-07T19:53:11.905Z,7.20
2017-11-07T19:55:39.581Z,7.20
2017-11-07T19:58:07.305Z,7.20
2017-11-07T20:00:35.121Z,7.20
2017-11-07T20:03:02.867Z,7.20
2017-11-07T20:05:30.527Z,7.20
2017-11-07T20:07:58.148Z,7.20
2017-11-07T20:10:26.075Z,7.20
2017-11-07T20:12:53.690Z,7.10
2017-11-07T20:15:21.389Z,7.20
2017-11-07T20:17:49.288Z,7.20
2017-11-07T20:20:16.914Z,7.10
2017-11-07T20:22:44.784Z,7.20
2017-11-07T20:25:12.474Z,7.20
2017-11-07T20:27:40.081Z,7.10
2017-11-07T20:30:10.537Z,7.10
2017-11-07T20:32:38.127Z,7.10
2017-11-07T20:37:33.261Z,7.10
2017-11-07T20:40:01.609Z,7.20
2017-11-07T20:42:29.670Z,7.20
2017-11-07T20:44:57.584Z,7.20
2017-11-07T20:47:25.207Z,7.10
2017-11-07T20:49:52.925Z,7.10
2017-11-07T20:52:20.543Z,7.10
2017-11-07T20:54:49.201Z,7.10
2017-11-07T20:57:16.883Z,7.10
2017-11-07T20:59:44.506Z,7.10
2017-11-07T21:02:12.964Z,6.90
2017-11-07T21:04:40.581Z,6.90
2017-11-07T21:07:08.895Z,6.90
2017-11-07T21:09:36.507Z,6.90
2017-11-07T21:12:04.111Z,6.90
2017-11-07T21:14:31.755Z,6.90
2017-11-07T21:17:00.318Z,6.90
2017-11-07T21:19:32.771Z,6.90
2017-11-07T21:22:00.391Z,6.90
2017-11-07T21:24:28.029Z,6.80
2017-11-07T21:26:56.472Z,6.80
2017-11-07T21:29:24.082Z,6.80
2017-11-07T21:31:52.587Z,6.90
2017-11-07T21:34:22.951Z,6.90
2017-11-07T21:36:50.525Z,6.90
2017-11-07T21:39:18.536Z,6.90
2017-11-07T21:41:46.170Z,6.90
2017-11-07T21:44:14.535Z,6.80
2017-11-07T21:46:42.646Z,6.80
2017-11-07T21:49:10.733Z,6.80
2017-11-07T21:51:38.324Z,6.80
2017-11-07T21:54:05.938Z,6.70
2017-11-07T21:56:33.562Z,6.70
2017-11-07T21:59:01.917Z,6.60
2017-11-07T22:01:29.532Z,6.60
2017-11-07T22:03:57.279Z,6.70
2017-11-07T22:06:25.634Z,6.70
2017-11-07T22:08:54.142Z,6.70
2017-11-07T22:11:21.754Z,6.70
2017-11-07T22:13:49.364Z,6.70
2017-11-07T22:16:17.065Z,6.70
2017-11-07T22:18:44.710Z,6.60
2017-11-07T22:21:12.365Z,6.60
2017-11-07T22:23:41.714Z,6.70
2017-11-07T22:26:09.346Z,6.70
2017-11-07T22:28:36.945Z,6.70
2017-11-07T22:31:05.684Z,6.60
2017-11-07T22:33:33.272Z,6.60
2017-11-07T22:36:00.889Z,6.70
2017-11-07T22:38:28.538Z,6.80
2017-11-07T22:40:56.165Z,6.70
2017-11-07T22:43:23.827Z,6.80
2017-11-07T22:45:51.442Z,6.70
2017-11-07T22:48:19.101Z,6.60
2017-11-07T22:50:46.725Z,6.60
2017-11-07T22:53:15.263Z,6.60
2017-11-07T22:55:42.880Z,6.60
2017-11-07T22:58:10.513Z,6.70
2017-11-07T23:00:38.102Z,6.60
2017-11-07T23:03:05.704Z,6.60
2017-11-07T23:05:33.298Z,6.60
2017-11-07T23:08:00.898Z,6.60
2017-11-07T23:10:28.505Z,6.60
2017-11-07T23:12:59.006Z,6.70
2017-11-07T23:15:26.636Z,6.60
2017-11-07T23:17:54.249Z,6.60
2017-11-07T23:20:21.869Z,6.50
2017-11-07T23:22:49.499Z,6.50
2017-11-07T23:25:18.193Z,6.50
2017-11-07T23:27:46.552Z,6.50
2017-11-07T23:30:14.247Z,6.50
2017-11-07T23:32:41.865Z,6.60
2017-11-07T23:35:09.471Z,6.60
2017-11-07T23:37:37.082Z,6.60
2017-11-07T23:40:04.681Z,6.60
2017-11-07T23:42:33.514Z,6.60
2017-11-07T23:45:01.105Z,6.60
2017-11-07T23:47:28.686Z,6.60
2017-11-07T23:49:56.282Z,6.60
2017-11-07T23:52:23.885Z,6.60
2017-11-07T23:54:51.489Z,6.70
2017-11-07T23:57:19.113Z,6.70
2017-11-07T23:59:47.477Z,6.80
